createdAt,value
2023-03-15T00:02:01.544Z,6.70
2023-03-15T00:04:28.678Z,6.80
2023-03-15T00:06:55.501Z,6.80
2023-03-15T00:09:22.319Z,6.80
2023-03-15T00:11:49.452Z,6.70
2023-03-15T00:14:16.287Z,6.70
2023-03-15T00:16:43.335Z,6.60
2023-03-15T00:19:11.053Z,6.60
2023-03-15T00:21:37.987Z,6.50
2023-03-15T00:24:04.922Z,6.50
2023-03-15T00:26:31.811Z,6.40
2023-03-15T00:28:59.512Z,6.40
2023-03-15T00:31:26.455Z,6.40
2023-03-15T00:33:56.429Z,6.40
2023-03-15T00:36:24.339Z,6.40
2023-03-15T00:38:53.497Z,6.40
2023-03-15T00:41:21.982Z,6.40
2023-03-15T00:43:49.577Z,6.40
2023-03-15T00:46:17.945Z,6.50
2023-03-15T00:48:48.677Z,6.50
2023-03-15T00:51:18.683Z,6.50
2023-03-15T00:53:46.945Z,6.50
2023-03-15T00:56:17.328Z,6.60
2023-03-15T00:58:44.875Z,6.50
2023-03-15T01:01:21.085Z,6.40
2023-03-15T01:03:48.383Z,6.40
2023-03-15T01:06:21.013Z,6.40
2023-03-15T01:08:48.277Z,6.40
2023-03-15T01:11:19.538Z,6.40
2023-03-15T01:13:46.788Z,6.40
2023-03-15T01:16:14.922Z,6.40
2023-03-15T01:18:43.749Z,6.40
2023-03-15T01:21:12.547Z,6.40
2023-03-15T01:23:40.021Z,6.50
2023-03-15T01:26:10.986Z,6.40
2023-03-15T01:28:37.849Z,6.50
2023-03-15T01:31:04.853Z,6.50
2023-03-15T01:33:32.278Z,6.50
2023-03-15T01:36:05.486Z,6.60
2023-03-15T01:38:33.748Z,6.60
2023-03-15T01:41:01.116Z,6.50
2023-03-15T01:43:31.908Z,6.50
2023-03-15T01:46:02.273Z,6.50
2023-03-15T01:48:52.291Z,6.50
2023-03-15T01:51:45.250Z,6.50
2023-03-15T01:54:29.681Z,6.50
2023-03-15T01:57:14.450Z,6.50
2023-03-15T01:59:48.174Z,6.50
2023-03-15T02:02:15.357Z,6.40
2023-03-15T02:04:52.816Z,6.50
2023-03-15T02:07:24.854Z,6.50
2023-03-15T02:10:05.439Z,6.50
2023-03-15T02:12:40.618Z,6.40
2023-03-15T02:15:09.505Z,6.40
2023-03-15T02:17:40.360Z,6.40
2023-03-15T02:20:07.826Z,6.40
2023-03-15T02:23:04.978Z,6.40
2023-03-15T02:25:55.129Z,6.30
2023-03-15T02:28:22.500Z,6.30
2023-03-15T02:30:50.125Z,6.30
2023-03-15T02:33:32.055Z,6.30
2023-03-15T02:36:10.174Z,6.30
2023-03-15T02:38:37.536Z,6.20
2023-03-15T02:41:05.277Z,6.30
2023-03-15T02:43:35.584Z,6.30
2023-03-15T02:46:03.707Z,6.30
2023-03-15T02:48:33.614Z,6.30
2023-03-15T02:51:02.069Z,6.20
2023-03-15T02:53:30.954Z,6.20
2023-03-15T02:55:58.496Z,6.30
2023-03-15T02:58:25.552Z,6.20
2023-03-15T03:00:53.810Z,6.20
2023-03-15T03:03:21.077Z,6.20
2023-03-15T03:05:48.098Z,6.20
2023-03-15T03:08:16.589Z,6.30
2023-03-15T03:10:44.021Z,6.40
2023-03-15T03:13:11.008Z,6.20
2023-03-15T03:15:39.789Z,6.30
2023-03-15T03:18:06.568Z,6.30
2023-03-15T03:20:33.705Z,6.20
2023-03-15T03:23:05.921Z,6.20
2023-03-15T03:25:33.562Z,6.20
2023-03-15T03:28:06.801Z,6.20
2023-03-15T03:30:36.036Z,6.20
2023-03-15T03:33:03.286Z,6.20
2023-03-15T03:35:32.351Z,6.20
2023-03-15T03:37:59.466Z,6.20
2023-03-15T03:40:32.818Z,6.20
2023-03-15T03:43:03.925Z,6.20
2023-03-15T03:45:31.317Z,6.10
2023-03-15T03:48:00.033Z,6.10
2023-03-15T03:50:27.879Z,6.20
2023-03-15T03:52:54.801Z,6.10
2023-03-15T03:55:26.555Z,6.10
2023-03-15T03:57:54.294Z,6.10
2023-03-15T04:00:38.870Z,6.10
2023-03-15T04:03:07.445Z,6.00
2023-03-15T04:05:36.683Z,6.00
2023-03-15T04:08:04.024Z,6.00
2023-03-15T04:10:36.396Z,6.00
2023-03-15T04:13:03.390Z,6.10
2023-03-15T04:15:31.416Z,6.00
2023-03-15T04:17:58.791Z,6.00
2023-03-15T04:20:35.167Z,6.00
2023-03-15T04:23:03.101Z,6.00
2023-03-15T04:26:08.358Z,6.00
2023-03-15T04:28:47.826Z,6.00
2023-03-15T04:31:37.714Z,6.10
2023-03-15T04:34:28.426Z,6.00
2023-03-15T04:37:13.739Z,6.00
2023-03-15T04:40:01.808Z,5.90
2023-03-15T04:42:44.504Z,6.00
2023-03-15T04:45:27.490Z,5.90
2023-03-15T04:48:13.109Z,5.90
2023-03-15T04:50:47.857Z,5.90
2023-03-15T04:53:33.060Z,5.90
2023-03-15T04:56:12.860Z,5.90
2023-03-15T04:58:46.443Z,5.90
2023-03-15T05:01:33.709Z,5.90
2023-03-15T05:04:13.431Z,5.90
2023-03-15T05:06:58.434Z,5.90
2023-03-15T05:09:48.463Z,5.90
2023-03-15T05:12:31.939Z,5.90
2023-03-15T05:15:18.186Z,5.80
2023-03-15T05:18:14.230Z,5.80
2023-03-15T05:20:59.595Z,5.90
2023-03-15T05:23:42.492Z,5.90
2023-03-15T05:26:31.120Z,5.90
2023-03-15T05:29:15.566Z,6.00
2023-03-15T05:32:06.493Z,6.00
2023-03-15T05:34:54.675Z,6.10
2023-03-15T05:37:40.755Z,6.20
2023-03-15T05:40:30.154Z,6.30
2023-03-15T05:43:35.463Z,6.30
2023-03-15T05:46:19.617Z,6.40
2023-03-15T05:49:15.179Z,6.30
2023-03-15T05:52:01.049Z,6.30
2023-03-15T05:54:47.083Z,6.20
2023-03-15T05:57:28.578Z,6.10
2023-03-15T06:00:20.710Z,6.20
2023-03-15T06:02:51.470Z,6.10
2023-03-15T06:05:32.909Z,6.00
2023-03-15T06:08:03.376Z,6.00
2023-03-15T06:10:30.908Z,6.00
2023-03-15T06:13:00.903Z,6.00
2023-03-15T06:15:28.021Z,6.00
2023-03-15T06:17:56.229Z,6.00
2023-03-15T06:20:23.094Z,6.00
2023-03-15T06:22:49.962Z,5.90
2023-03-15T06:25:28.900Z,5.90
2023-03-15T06:27:56.013Z,5.90
2023-03-15T06:30:26.002Z,5.90
2023-03-15T06:32:56.224Z,5.90
2023-03-15T06:35:23.315Z,6.00
2023-03-15T06:37:53.032Z,6.00
2023-03-15T06:40:20.118Z,6.10
2023-03-15T06:42:48.330Z,6.30
2023-03-15T06:45:17.608Z,6.30
2023-03-15T06:47:45.595Z,6.40
2023-03-15T06:50:13.336Z,6.50
2023-03-15T06:52:40.237Z,6.60
2023-03-15T06:55:07.907Z,6.80
2023-03-15T06:57:34.823Z,6.90
2023-03-15T07:00:01.643Z,7.10
2023-03-15T07:02:28.580Z,7.30
2023-03-15T07:04:55.331Z,7.40
2023-03-15T07:07:22.060Z,7.60
2023-03-15T07:09:48.850Z,7.90
2023-03-15T07:12:15.574Z,8.00
2023-03-15T07:14:42.362Z,8.30
2023-03-15T07:17:09.181Z,8.40
2023-03-15T07:19:41.380Z,8.60
2023-03-15T07:22:13.752Z,8.90
2023-03-15T07:24:40.711Z,9.20
2023-03-15T07:27:07.618Z,9.40
2023-03-15T07:29:34.430Z,9.60
2023-03-15T07:32:01.545Z,9.80
2023-03-15T07:34:28.385Z,10.00
2023-03-15T07:36:55.149Z,10.20
2023-03-15T07:39:23.319Z,10.30
2023-03-15T07:41:50.013Z,10.50
2023-03-15T07:44:31.924Z,10.70
2023-03-15T07:46:58.921Z,10.90
2023-03-15T07:49:25.906Z,11.10
2023-03-15T07:51:52.704Z,11.20
2023-03-15T07:54:20.205Z,11.30
2023-03-15T07:56:46.965Z,11.40
2023-03-15T07:59:13.804Z,11.50
2023-03-15T08:01:40.557Z,11.60
2023-03-15T08:04:07.347Z,11.70
2023-03-15T08:06:34.057Z,11.80
2023-03-15T08:09:04.306Z,12.00
2023-03-15T08:11:31.408Z,12.10
2023-03-15T08:13:58.274Z,12.20
2023-03-15T08:16:25.352Z,12.30
2023-03-15T08:18:52.109Z,12.40
2023-03-15T08:21:18.928Z,12.60
2023-03-15T08:23:45.667Z,12.70
2023-03-15T08:26:12.387Z,12.80
2023-03-15T08:28:39.089Z,12.90
2023-03-15T08:31:09.677Z,13.00
2023-03-15T08:33:36.446Z,13.20
2023-03-15T08:36:03.317Z,13.30
2023-03-15T08:38:30.104Z,13.40
2023-03-15T08:40:57.679Z,13.50
2023-03-15T08:43:24.709Z,13.60
2023-03-15T08:46:00.741Z,13.80
2023-03-15T08:48:28.104Z,14.00
2023-03-15T08:50:54.838Z,14.30
2023-03-15T08:53:21.569Z,14.40
2023-03-15T08:55:49.594Z,14.60
2023-03-15T08:58:16.385Z,14.80
2023-03-15T09:00:43.245Z,14.90
2023-03-15T09:03:11.304Z,15.00
2023-03-15T09:05:38.106Z,15.10
2023-03-15T09:08:05.020Z,15.30
2023-03-15T09:10:31.745Z,15.50
2023-03-15T09:12:58.456Z,15.80
2023-03-15T09:15:25.230Z,16.20
2023-03-15T09:17:52.327Z,16.50
2023-03-15T09:20:21.945Z,16.70
2023-03-15T09:22:53.703Z,16.80
2023-03-15T09:25:20.893Z,16.90
2023-03-15T09:27:48.146Z,17.20
2023-03-15T09:30:15.770Z,17.50
2023-03-15T09:32:44.178Z,18.10
2023-03-15T09:35:14.633Z,18.40
2023-03-15T09:37:42.574Z,18.50
2023-03-15T09:40:20.983Z,18.60
2023-03-15T09:42:59.998Z,19.10
2023-03-15T09:45:48.731Z,19.90
2023-03-15T09:48:25.622Z,21.20
2023-03-15T09:51:00.942Z,22.80
2023-03-15T09:53:47.017Z,24.30
2023-03-15T09:56:27.926Z,25.80
2023-03-15T09:58:58.478Z,27.20
2023-03-15T10:01:31.259Z,28.20
2023-03-15T10:03:58.484Z,29.20
2023-03-15T10:06:30.214Z,30.10
2023-03-15T10:08:59.629Z,30.80
2023-03-15T10:12:06.714Z,31.60
2023-03-15T10:15:27.634Z,32.30
2023-03-15T10:18:13.159Z,33.10
2023-03-15T10:20:49.584Z,34.10
2023-03-15T10:23:44.135Z,34.90
2023-03-15T10:26:15.458Z,35.60
2023-03-15T10:28:43.848Z,36.60
2023-03-15T10:31:36.878Z,35.40
2023-03-15T10:34:11.507Z,31.80
2023-03-15T10:36:44.120Z,32.40
2023-03-15T10:39:12.865Z,34.10
2023-03-15T10:41:45.685Z,35.50
2023-03-15T10:44:17.232Z,36.90
2023-03-15T10:47:04.613Z,38.10
2023-03-15T10:49:41.692Z,38.90
2023-03-15T10:52:25.440Z,39.70
2023-03-15T10:54:58.818Z,37.40
2023-03-15T10:57:37.120Z,37.40
2023-03-15T11:00:20.168Z,36.70
2023-03-15T11:02:52.343Z,35.30
2023-03-15T11:05:19.988Z,36.90
2023-03-15T11:07:55.714Z,38.50
2023-03-15T11:10:28.412Z,39.80
2023-03-15T11:13:22.233Z,40.80
2023-03-15T11:16:13.993Z,41.10
2023-03-15T11:18:48.973Z,41.50
2023-03-15T11:21:17.552Z,42.20
2023-03-15T11:23:47.892Z,42.70
2023-03-15T11:26:32.334Z,39.40
2023-03-15T11:29:04.099Z,34.40
2023-03-15T11:31:31.290Z,34.40
2023-03-15T11:34:09.141Z,36.80
2023-03-15T11:36:41.307Z,39.10
2023-03-15T11:39:13.821Z,41.00
2023-03-15T11:41:52.645Z,42.40
2023-03-15T11:44:50.418Z,43.00
2023-03-15T11:47:59.651Z,43.40
2023-03-15T11:50:26.408Z,44.10
2023-03-15T11:52:53.836Z,44.80
2023-03-15T11:55:28.901Z,44.80
2023-03-15T11:57:58.012Z,44.90
2023-03-15T12:00:26.821Z,45.10
2023-03-15T12:02:54.986Z,45.40
2023-03-15T12:05:45.107Z,45.80
2023-03-15T12:08:34.527Z,46.10
2023-03-15T12:11:02.066Z,46.40
2023-03-15T12:13:31.474Z,46.40
2023-03-15T12:15:59.185Z,46.40
2023-03-15T12:18:31.121Z,46.50
2023-03-15T12:21:10.990Z,46.40
2023-03-15T12:23:46.465Z,46.20
2023-03-15T12:26:25.430Z,45.90
2023-03-15T12:29:01.082Z,44.80
2023-03-15T12:31:50.772Z,43.60
2023-03-15T12:34:24.564Z,43.90
2023-03-15T12:36:55.475Z,44.10
2023-03-15T12:39:43.968Z,43.80
2023-03-15T12:42:36.785Z,43.70
2023-03-15T12:45:15.520Z,43.20
2023-03-15T12:48:12.971Z,43.20
2023-03-15T12:50:45.884Z,43.70
2023-03-15T12:53:22.585Z,44.00
2023-03-15T12:55:54.108Z,43.70
2023-03-15T12:58:36.236Z,42.70
2023-03-15T13:01:05.883Z,42.30
2023-03-15T13:03:35.954Z,42.20
2023-03-15T13:06:33.395Z,42.30
2023-03-15T13:09:14.722Z,41.80
2023-03-15T13:11:53.808Z,41.30
2023-03-15T13:14:38.584Z,40.60
2023-03-15T13:17:10.128Z,40.00
2023-03-15T13:19:49.970Z,39.80
2023-03-15T13:22:31.379Z,39.50
2023-03-15T13:25:01.025Z,39.20
2023-03-15T13:27:39.910Z,38.50
2023-03-15T13:30:45.466Z,37.60
2023-03-15T13:33:28.162Z,37.00
2023-03-15T13:36:04.242Z,36.70
2023-03-15T13:38:51.630Z,36.50
2023-03-15T13:41:38.898Z,35.40
2023-03-15T13:44:23.665Z,34.60
2023-03-15T13:46:52.066Z,34.30
2023-03-15T13:49:19.770Z,34.10
2023-03-15T13:51:48.843Z,34.50
2023-03-15T13:54:26.571Z,34.80
2023-03-15T13:57:19.381Z,34.80
2023-03-15T13:59:53.403Z,34.60
2023-03-15T14:02:33.036Z,33.80
2023-03-15T14:05:05.311Z,32.50
2023-03-15T14:07:45.367Z,31.80
2023-03-15T14:11:06.811Z,30.90
2023-03-15T14:13:36.025Z,29.60
2023-03-15T14:16:06.459Z,28.90
2023-03-15T14:18:39.471Z,28.40
2023-03-15T14:21:08.093Z,27.70
2023-03-15T14:23:48.218Z,27.10
2023-03-15T14:26:18.013Z,26.20
2023-03-15T14:29:00.127Z,25.00
2023-03-15T14:31:32.696Z,24.10
2023-03-15T14:34:23.658Z,23.80
2023-03-15T14:36:54.045Z,23.60
2023-03-15T14:39:27.826Z,23.30
2023-03-15T14:41:54.911Z,22.90
2023-03-15T14:44:21.821Z,22.40
2023-03-15T14:46:49.274Z,21.80
2023-03-15T14:49:27.499Z,21.20
2023-03-15T14:52:02.315Z,20.60
2023-03-15T14:54:30.733Z,20.10
2023-03-15T14:56:57.714Z,19.60
2023-03-15T14:59:24.686Z,19.10
2023-03-15T15:01:58.394Z,18.80
2023-03-15T15:04:29.759Z,18.50
2023-03-15T15:06:56.506Z,18.10
2023-03-15T15:09:26.359Z,17.70
2023-03-15T15:11:54.109Z,17.40
2023-03-15T15:14:21.980Z,17.20
2023-03-15T15:16:49.665Z,16.90
2023-03-15T15:19:16.694Z,16.60
2023-03-15T15:21:44.140Z,16.40
2023-03-15T15:24:17.171Z,16.20
2023-03-15T15:26:44.197Z,16.00
2023-03-15T15:29:15.819Z,15.80
2023-03-15T15:31:43.399Z,15.70
2023-03-15T15:34:11.428Z,15.60
2023-03-15T15:36:43.544Z,15.60
2023-03-15T15:39:27.386Z,15.50
2023-03-15T15:41:54.147Z,15.50
2023-03-15T15:44:23.892Z,15.40
2023-03-15T15:46:50.783Z,15.30
2023-03-15T15:49:19.364Z,15.20
2023-03-15T15:51:49.450Z,15.10
2023-03-15T15:54:27.548Z,14.90
2023-03-15T15:56:56.916Z,14.80
2023-03-15T15:59:27.111Z,14.70
2023-03-15T16:02:02.936Z,14.60
2023-03-15T16:04:30.595Z,14.50
2023-03-15T16:07:01.359Z,14.40
2023-03-15T16:09:30.490Z,14.30
2023-03-15T16:11:57.445Z,14.30
2023-03-15T16:14:24.183Z,14.20
2023-03-15T16:16:50.984Z,14.00
2023-03-15T16:19:17.796Z,14.00
2023-03-15T16:21:47.743Z,13.80
2023-03-15T16:24:19.439Z,13.80
2023-03-15T16:26:47.758Z,13.70
2023-03-15T16:29:26.901Z,13.70
2023-03-15T16:31:54.718Z,13.60
2023-03-15T16:34:26.003Z,13.60
2023-03-15T16:36:55.757Z,13.50
2023-03-15T16:39:22.858Z,13.40
2023-03-15T16:41:52.041Z,13.40
2023-03-15T16:44:20.804Z,13.30
2023-03-15T16:46:48.757Z,13.10
2023-03-15T16:49:15.812Z,13.10
2023-03-15T16:51:47.177Z,12.90
2023-03-15T16:54:22.014Z,12.80
2023-03-15T16:56:54.809Z,12.70
2023-03-15T16:59:21.990Z,12.70
2023-03-15T17:01:50.391Z,12.50
2023-03-15T17:04:17.494Z,12.50
2023-03-15T17:06:46.300Z,12.30
2023-03-15T17:09:20.312Z,12.30
2023-03-15T17:11:48.901Z,12.20
2023-03-15T17:14:20.915Z,12.10
2023-03-15T17:16:48.220Z,12.00
2023-03-15T17:19:15.540Z,12.00
2023-03-15T17:21:44.375Z,11.90
2023-03-15T17:24:12.103Z,11.90
2023-03-15T17:26:40.629Z,11.80
2023-03-15T17:29:08.548Z,11.80
2023-03-15T17:31:36.555Z,11.70
2023-03-15T17:34:04.068Z,11.60
2023-03-15T17:36:38.570Z,11.60
2023-03-15T17:39:07.487Z,11.50
2023-03-15T17:41:38.231Z,11.50
2023-03-15T17:44:05.280Z,11.40
2023-03-15T17:46:33.206Z,11.40
2023-03-15T17:49:02.744Z,11.30
2023-03-15T17:51:32.834Z,11.30
2023-03-15T17:54:00.176Z,11.20
2023-03-15T17:56:28.945Z,11.20
2023-03-15T17:58:56.449Z,11.20
2023-03-15T18:01:27.602Z,11.20
2023-03-15T18:03:56.166Z,11.20
2023-03-15T18:06:24.327Z,11.10
2023-03-15T18:08:51.839Z,11.10
2023-03-15T18:11:36.033Z,11.10
2023-03-15T18:14:06.163Z,11.10
2023-03-15T18:16:33.256Z,11.00
2023-03-15T18:19:00.392Z,11.00
2023-03-15T18:21:28.282Z,11.00
2023-03-15T18:23:55.401Z,11.00
2023-03-15T18:26:22.877Z,11.00
2023-03-15T18:28:50.068Z,11.00
2023-03-15T18:31:20.038Z,10.90
2023-03-15T18:33:47.994Z,10.90
2023-03-15T18:36:15.042Z,10.80
2023-03-15T18:38:42.119Z,10.90
2023-03-15T18:41:24.770Z,10.80
2023-03-15T18:43:52.223Z,10.80
2023-03-15T18:46:27.005Z,10.80
2023-03-15T18:48:54.320Z,10.80
2023-03-15T18:51:25.107Z,10.70
2023-03-15T18:53:52.331Z,10.70
2023-03-15T18:56:22.419Z,10.70
2023-03-15T18:58:50.796Z,10.70
2023-03-15T19:01:19.095Z,10.60
2023-03-15T19:03:46.151Z,10.70
2023-03-15T19:06:13.281Z,10.60
2023-03-15T19:08:40.531Z,10.60
2023-03-15T19:11:08.456Z,10.60
2023-03-15T19:13:35.511Z,10.60
2023-03-15T19:16:03.508Z,10.50
2023-03-15T19:18:32.437Z,10.50
2023-03-15T19:20:59.752Z,10.40
2023-03-15T19:23:27.334Z,10.40
2023-03-15T19:25:54.688Z,10.40
2023-03-15T19:28:21.437Z,10.40
2023-03-15T19:30:49.238Z,10.40
2023-03-15T19:33:16.247Z,10.40
2023-03-15T19:35:42.989Z,10.40
2023-03-15T19:38:09.771Z,10.40
2023-03-15T19:40:37.255Z,10.30
2023-03-15T19:43:04.416Z,10.40
2023-03-15T19:45:31.447Z,10.30
2023-03-15T19:47:58.248Z,10.30
2023-03-15T19:50:25.027Z,10.30
2023-03-15T19:52:51.842Z,10.30
2023-03-15T19:55:20.691Z,10.30
2023-03-15T19:57:47.957Z,10.30
2023-03-15T20:00:16.330Z,10.30
2023-03-15T20:02:44.399Z,10.20
2023-03-15T20:05:14.883Z,10.30
2023-03-15T20:07:44.796Z,10.20
2023-03-15T20:10:12.700Z,10.30
2023-03-15T20:12:42.441Z,10.30
2023-03-15T20:15:11.275Z,10.30
2023-03-15T20:17:38.347Z,10.30
2023-03-15T20:20:09.393Z,10.30
2023-03-15T20:22:37.529Z,10.30
2023-03-15T20:25:05.639Z,10.30
2023-03-15T20:27:33.620Z,10.20
2023-03-15T20:30:03.247Z,10.20
2023-03-15T20:32:30.578Z,10.20
2023-03-15T20:34:57.472Z,10.20
2023-03-15T20:37:25.580Z,10.20
2023-03-15T20:39:52.396Z,10.10
2023-03-15T20:42:21.911Z,10.10
2023-03-15T20:44:48.842Z,10.10
2023-03-15T20:47:16.045Z,10.10
2023-03-15T20:49:43.358Z,10.00
2023-03-15T20:52:11.593Z,10.00
2023-03-15T20:54:38.317Z,10.00
2023-03-15T20:57:07.080Z,10.00
2023-03-15T20:59:34.376Z,10.00
2023-03-15T21:02:02.977Z,10.00
2023-03-15T21:04:30.761Z,10.00
2023-03-15T21:07:06.894Z,9.90
2023-03-15T21:09:34.216Z,9.90
2023-03-15T21:12:01.527Z,9.90
2023-03-15T21:14:28.839Z,9.90
2023-03-15T21:16:56.528Z,9.90
2023-03-15T21:19:26.060Z,9.90
2023-03-15T21:21:53.340Z,9.90
2023-03-15T21:24:20.504Z,9.90
2023-03-15T21:26:49.264Z,10.00
2023-03-15T21:29:16.444Z,9.90
2023-03-15T21:31:46.567Z,9.90
2023-03-15T21:34:13.874Z,9.90
2023-03-15T21:36:41.297Z,9.90
2023-03-15T21:39:08.516Z,9.90
2023-03-15T21:41:35.706Z,9.90
2023-03-15T21:44:02.947Z,9.90
2023-03-15T21:46:30.116Z,9.90
2023-03-15T21:48:57.326Z,9.80
2023-03-15T21:51:24.525Z,9.80
2023-03-15T21:53:51.450Z,9.80
2023-03-15T21:56:18.234Z,9.70
2023-03-15T21:58:44.974Z,9.80
2023-03-15T22:01:13.973Z,9.80
2023-03-15T22:03:42.435Z,9.80
2023-03-15T22:06:09.215Z,9.70
2023-03-15T22:08:35.977Z,9.70
2023-03-15T22:11:04.535Z,9.80
2023-03-15T22:13:31.339Z,9.70
2023-03-15T22:15:59.564Z,9.70
2023-03-15T22:18:29.871Z,9.70
2023-03-15T22:20:57.068Z,9.70
2023-03-15T22:23:23.931Z,9.70
2023-03-15T22:25:52.853Z,9.70
2023-03-15T22:28:20.501Z,9.60
2023-03-15T22:30:49.142Z,9.60
2023-03-15T22:33:17.092Z,9.60
2023-03-15T22:35:44.004Z,9.50
2023-03-15T22:38:10.789Z,9.50
2023-03-15T22:40:39.799Z,9.50
2023-03-15T22:43:08.273Z,9.40
2023-03-15T22:45:35.090Z,9.40
2023-03-15T22:48:02.086Z,9.40
2023-03-15T22:50:28.921Z,9.40
2023-03-15T22:52:55.752Z,9.40
2023-03-15T22:55:22.945Z,9.30
2023-03-15T22:57:49.677Z,9.40
2023-03-15T23:00:20.759Z,9.30
2023-03-15T23:02:47.818Z,9.30
2023-03-15T23:05:14.685Z,9.30
2023-03-15T23:07:41.523Z,9.30
2023-03-15T23:10:08.935Z,9.30
2023-03-15T23:12:36.703Z,9.30
2023-03-15T23:15:04.654Z,9.30
2023-03-15T23:17:31.684Z,9.40
2023-03-15T23:19:58.484Z,9.30
2023-03-15T23:22:25.302Z,9.30
2023-03-15T23:24:52.039Z,9.30
2023-03-15T23:27:18.863Z,9.30
2023-03-15T23:29:54.137Z,9.30
2023-03-15T23:32:21.655Z,9.30
2023-03-15T23:34:48.471Z,9.30
2023-03-15T23:37:15.434Z,9.30
2023-03-15T23:39:42.762Z,9.40
2023-03-15T23:42:10.417Z,9.40
2023-03-15T23:44:37.483Z,9.40
2023-03-15T23:47:05.682Z,9.40
2023-03-15T23:49:33.716Z,9.40
2023-03-15T23:52:05.522Z,9.40
2023-03-15T23:54:39.721Z,9.40
2023-03-15T23:57:11.883Z,9.40
2023-03-15T23:59:40.542Z,9.40
